sensor_id;sensor_type;location;lat;lon;timestamp;P1;durP1;ratioP1;P2;durP2;ratioP2
7021;SDS011;3552;42.664;23.406;2022-09-06T00:00:24;7.23;;;4.27;;
7021;SDS011;3552;42.664;23.406;2022-09-06T00:02:51;8.00;;;5.13;;
7021;SDS011;3552;42.664;23.406;2022-09-06T00:05:19;9.47;;;5.40;;
7021;SDS011;3552;42.664;23.406;2022-09-06T00:07:46;13.30;;;6.53;;
7021;SDS011;3552;42.664;23.406;2022-09-06T00:10:13;9.40;;;5.83;;
7021;SDS011;3552;42.664;23.406;2022-09-06T00:12:42;10.67;;;6.60;;
7021;SDS011;3552;42.664;23.406;2022-09-06T00:15:09;8.63;;;5.63;;
7021;SDS011;3552;42.664;23.406;2022-09-06T00:17:36;13.43;;;7.00;;
7021;SDS011;3552;42.664;23.406;2022-09-06T00:20:04;10.40;;;6.70;;
7021;SDS011;3552;42.664;23.406;2022-09-06T00:22:33;8.83;;;5.80;;
7021;SDS011;3552;42.664;23.406;2022-09-06T00:25:00;10.20;;;7.27;;
7021;SDS011;3552;42.664;23.406;2022-09-06T00:27:30;14.00;;;8.60;;
7021;SDS011;3552;42.664;23.406;2022-09-06T00:30:01;13.77;;;6.47;;
7021;SDS011;3552;42.664;23.406;2022-09-06T00:32:30;9.97;;;6.53;;
7021;SDS011;3552;42.664;23.406;2022-09-06T00:34:58;8.70;;;6.07;;
7021;SDS011;3552;42.664;23.406;2022-09-06T00:37:25;8.80;;;5.80;;
7021;SDS011;3552;42.664;23.406;2022-09-06T00:39:52;4.77;;;4.20;;
7021;SDS011;3552;42.664;23.406;2022-09-06T00:42:19;7.87;;;4.30;;
7021;SDS011;3552;42.664;23.406;2022-09-06T00:44:46;6.57;;;3.80;;
7021;SDS011;3552;42.664;23.406;2022-09-06T00:47:16;6.93;;;4.30;;
7021;SDS011;3552;42.664;23.406;2022-09-06T00:49:45;5.47;;;4.07;;
7021;SDS011;3552;42.664;23.406;2022-09-06T00:52:15;8.10;;;3.80;;
7021;SDS011;3552;42.664;23.406;2022-09-06T00:54:44;4.63;;;3.90;;
7021;SDS011;3552;42.664;23.406;2022-09-06T00:59:39;4.80;;;3.80;;
7021;SDS011;3552;42.664;23.406;2022-09-06T01:02:08;4.17;;;3.50;;
7021;SDS011;3552;42.664;23.406;2022-09-06T01:04:38;10.73;;;4.40;;
7021;SDS011;3552;42.664;23.406;2022-09-06T01:07:11;4.20;;;3.73;;
7021;SDS011;3552;42.664;23.406;2022-09-06T01:09:50;6.17;;;4.27;;
7021;SDS011;3552;42.664;23.406;2022-09-06T01:12:33;6.13;;;3.57;;
7021;SDS011;3552;42.664;23.406;2022-09-06T01:15:10;3.90;;;3.33;;
7021;SDS011;3552;42.664;23.406;2022-09-06T01:17:48;4.67;;;3.70;;
7021;SDS011;3552;42.664;23.406;2022-09-06T01:20:39;6.00;;;3.50;;
7021;SDS011;3552;42.664;23.406;2022-09-06T01:26:16;5.57;;;3.67;;
7021;SDS011;3552;42.664;23.406;2022-09-06T01:29:22;4.30;;;3.33;;
7021;SDS011;3552;42.664;23.406;2022-09-06T01:31:55;10.07;;;3.50;;
7021;SDS011;3552;42.664;23.406;2022-09-06T01:34:30;7.20;;;3.70;;
7021;SDS011;3552;42.664;23.406;2022-09-06T01:37:03;3.40;;;3.10;;
7021;SDS011;3552;42.664;23.406;2022-09-06T01:39:37;5.50;;;3.50;;
7021;SDS011;3552;42.664;23.406;2022-09-06T01:42:05;5.53;;;3.43;;
7021;SDS011;3552;42.664;23.406;2022-09-06T01:44:38;5.33;;;3.73;;
7021;SDS011;3552;42.664;23.406;2022-09-06T01:47:14;3.80;;;3.37;;
7021;SDS011;3552;42.664;23.406;2022-09-06T01:49:52;8.30;;;5.50;;
7021;SDS011;3552;42.664;23.406;2022-09-06T01:52:34;13.27;;;6.60;;
7021;SDS011;3552;42.664;23.406;2022-09-06T01:55:15;10.27;;;5.90;;
7021;SDS011;3552;42.664;23.406;2022-09-06T01:57:50;11.03;;;5.97;;
7021;SDS011;3552;42.664;23.406;2022-09-06T02:00:28;8.77;;;6.23;;
7021;SDS011;3552;42.664;23.406;2022-09-06T02:02:59;11.70;;;5.80;;
7021;SDS011;3552;42.664;23.406;2022-09-06T02:05:35;8.37;;;5.70;;
7021;SDS011;3552;42.664;23.406;2022-09-06T02:08:07;7.57;;;4.67;;
7021;SDS011;3552;42.664;23.406;2022-09-06T02:10:39;8.17;;;5.13;;
7021;SDS011;3552;42.664;23.406;2022-09-06T02:13:09;16.23;;;10.97;;
7021;SDS011;3552;42.664;23.406;2022-09-06T02:15:43;20.03;;;13.93;;
7021;SDS011;3552;42.664;23.406;2022-09-06T02:18:17;19.60;;;14.33;;
7021;SDS011;3552;42.664;23.406;2022-09-06T02:20:48;24.17;;;17.27;;
7021;SDS011;3552;42.664;23.406;2022-09-06T02:23:16;20.50;;;13.10;;
7021;SDS011;3552;42.664;23.406;2022-09-06T02:25:48;8.20;;;6.27;;
7021;SDS011;3552;42.664;23.406;2022-09-06T02:28:19;9.77;;;5.90;;
7021;SDS011;3552;42.664;23.406;2022-09-06T02:30:49;9.90;;;6.13;;
7021;SDS011;3552;42.664;23.406;2022-09-06T02:33:20;19.57;;;7.40;;
7021;SDS011;3552;42.664;23.406;2022-09-06T02:35:50;10.80;;;7.13;;
7021;SDS011;3552;42.664;23.406;2022-09-06T02:38:20;9.10;;;6.57;;
7021;SDS011;3552;42.664;23.406;2022-09-06T02:40:48;15.17;;;6.70;;
7021;SDS011;3552;42.664;23.406;2022-09-06T02:43:18;11.00;;;6.23;;
7021;SDS011;3552;42.664;23.406;2022-09-06T02:45:46;9.57;;;6.80;;
7021;SDS011;3552;42.664;23.406;2022-09-06T02:48:14;10.93;;;6.00;;
7021;SDS011;3552;42.664;23.406;2022-09-06T02:50:41;18.67;;;13.40;;
7021;SDS011;3552;42.664;23.406;2022-09-06T02:53:09;18.70;;;12.83;;
7021;SDS011;3552;42.664;23.406;2022-09-06T02:55:37;17.67;;;13.47;;
7021;SDS011;3552;42.664;23.406;2022-09-06T02:58:06;14.33;;;10.57;;
7021;SDS011;3552;42.664;23.406;2022-09-06T03:00:35;16.97;;;12.20;;
7021;SDS011;3552;42.664;23.406;2022-09-06T03:03:03;15.97;;;11.93;;
7021;SDS011;3552;42.664;23.406;2022-09-06T03:05:32;14.63;;;9.93;;
7021;SDS011;3552;42.664;23.406;2022-09-06T03:08:01;9.17;;;7.00;;
7021;SDS011;3552;42.664;23.406;2022-09-06T03:10:29;9.63;;;7.40;;
7021;SDS011;3552;42.664;23.406;2022-09-06T03:12:56;8.83;;;6.63;;
7021;SDS011;3552;42.664;23.406;2022-09-06T03:15:23;13.23;;;7.40;;
7021;SDS011;3552;42.664;23.406;2022-09-06T03:17:50;15.03;;;7.40;;
7021;SDS011;3552;42.664;23.406;2022-09-06T03:20:22;16.50;;;7.93;;
7021;SDS011;3552;42.664;23.406;2022-09-06T03:22:50;9.70;;;6.07;;
7021;SDS011;3552;42.664;23.406;2022-09-06T03:25:17;11.10;;;7.10;;
7021;SDS011;3552;42.664;23.406;2022-09-06T03:27:44;8.70;;;6.83;;
7021;SDS011;3552;42.664;23.406;2022-09-06T03:30:11;8.50;;;6.47;;
7021;SDS011;3552;42.664;23.406;2022-09-06T03:32:39;11.00;;;6.53;;
7021;SDS011;3552;42.664;23.406;2022-09-06T03:35:06;13.27;;;7.17;;
7021;SDS011;3552;42.664;23.406;2022-09-06T03:37:33;9.50;;;6.23;;
7021;SDS011;3552;42.664;23.406;2022-09-06T03:40:04;7.73;;;6.30;;
7021;SDS011;3552;42.664;23.406;2022-09-06T03:42:31;13.93;;;6.77;;
7021;SDS011;3552;42.664;23.406;2022-09-06T03:44:59;12.40;;;7.27;;
7021;SDS011;3552;42.664;23.406;2022-09-06T03:47:26;14.07;;;6.83;;
7021;SDS011;3552;42.664;23.406;2022-09-06T03:49:52;13.93;;;7.47;;
7021;SDS011;3552;42.664;23.406;2022-09-06T03:52:19;9.10;;;6.17;;
7021;SDS011;3552;42.664;23.406;2022-09-06T03:54:46;9.80;;;7.37;;
7021;SDS011;3552;42.664;23.406;2022-09-06T03:57:15;14.13;;;7.57;;
7021;SDS011;3552;42.664;23.406;2022-09-06T03:59:42;16.60;;;7.00;;
7021;SDS011;3552;42.664;23.406;2022-09-06T04:02:09;15.60;;;6.83;;
7021;SDS011;3552;42.664;23.406;2022-09-06T04:04:36;17.23;;;6.97;;
7021;SDS011;3552;42.664;23.406;2022-09-06T04:07:03;15.63;;;6.67;;
7021;SDS011;3552;42.664;23.406;2022-09-06T04:09:29;12.40;;;6.53;;
7021;SDS011;3552;42.664;23.406;2022-09-06T04:11:58;19.73;;;7.00;;
7021;SDS011;3552;42.664;23.406;2022-09-06T04:14:28;16.60;;;6.43;;
7021;SDS011;3552;42.664;23.406;2022-09-06T04:16:55;15.17;;;6.67;;
7021;SDS011;3552;42.664;23.406;2022-09-06T04:19:23;13.63;;;7.27;;
7021;SDS011;3552;42.664;23.406;2022-09-06T04:21:53;12.40;;;7.00;;
7021;SDS011;3552;42.664;23.406;2022-09-06T04:24:20;9.10;;;5.83;;
7021;SDS011;3552;42.664;23.406;2022-09-06T04:26:47;9.43;;;5.67;;
7021;SDS011;3552;42.664;23.406;2022-09-06T04:29:14;8.30;;;5.67;;
7021;SDS011;3552;42.664;23.406;2022-09-06T04:31:44;6.87;;;5.70;;
7021;SDS011;3552;42.664;23.406;2022-09-06T04:34:13;10.80;;;5.83;;
7021;SDS011;3552;42.664;23.406;2022-09-06T04:36:40;11.03;;;5.47;;
7021;SDS011;3552;42.664;23.406;2022-09-06T04:39:08;9.73;;;5.40;;
7021;SDS011;3552;42.664;23.406;2022-09-06T04:41:35;10.03;;;4.93;;
7021;SDS011;3552;42.664;23.406;2022-09-06T04:44:01;11.27;;;6.23;;
7021;SDS011;3552;42.664;23.406;2022-09-06T04:46:29;12.43;;;5.87;;
7021;SDS011;3552;42.664;23.406;2022-09-06T04:48:58;12.43;;;6.67;;
7021;SDS011;3552;42.664;23.406;2022-09-06T04:51:25;18.17;;;6.30;;
7021;SDS011;3552;42.664;23.406;2022-09-06T04:53:53;11.43;;;6.83;;
7021;SDS011;3552;42.664;23.406;2022-09-06T04:56:22;8.83;;;6.27;;
7021;SDS011;3552;42.664;23.406;2022-09-06T04:58:51;10.03;;;6.90;;
7021;SDS011;3552;42.664;23.406;2022-09-06T05:01:19;12.03;;;6.87;;
7021;SDS011;3552;42.664;23.406;2022-09-06T05:03:47;8.43;;;5.93;;
7021;SDS011;3552;42.664;23.406;2022-09-06T05:06:19;12.37;;;7.03;;
7021;SDS011;3552;42.664;23.406;2022-09-06T05:08:47;9.13;;;5.27;;
7021;SDS011;3552;42.664;23.406;2022-09-06T05:11:15;13.33;;;5.77;;
7021;SDS011;3552;42.664;23.406;2022-09-06T05:13:44;14.43;;;5.40;;
7021;SDS011;3552;42.664;23.406;2022-09-06T05:16:11;11.67;;;5.53;;
7021;SDS011;3552;42.664;23.406;2022-09-06T05:18:38;9.80;;;5.27;;
7021;SDS011;3552;42.664;23.406;2022-09-06T05:21:06;10.20;;;5.23;;
7021;SDS011;3552;42.664;23.406;2022-09-06T05:23:34;8.77;;;5.67;;
7021;SDS011;3552;42.664;23.406;2022-09-06T05:26:01;10.13;;;5.20;;
7021;SDS011;3552;42.664;23.406;2022-09-06T05:28:29;8.77;;;5.70;;
7021;SDS011;3552;42.664;23.406;2022-09-06T05:31:03;11.90;;;5.30;;
7021;SDS011;3552;42.664;23.406;2022-09-06T05:33:31;8.47;;;5.57;;
7021;SDS011;3552;42.664;23.406;2022-09-06T05:35:59;10.77;;;5.63;;
7021;SDS011;3552;42.664;23.406;2022-09-06T05:38:26;10.07;;;5.40;;
7021;SDS011;3552;42.664;23.406;2022-09-06T05:40:54;8.00;;;5.13;;
7021;SDS011;3552;42.664;23.406;2022-09-06T05:43:22;9.30;;;5.67;;
7021;SDS011;3552;42.664;23.406;2022-09-06T05:45:49;10.70;;;5.37;;
7021;SDS011;3552;42.664;23.406;2022-09-06T05:48:16;11.37;;;6.43;;
7021;SDS011;3552;42.664;23.406;2022-09-06T05:50:44;13.70;;;5.77;;
7021;SDS011;3552;42.664;23.406;2022-09-06T05:53:12;10.53;;;5.73;;
7021;SDS011;3552;42.664;23.406;2022-09-06T05:55:39;13.63;;;6.27;;
7021;SDS011;3552;42.664;23.406;2022-09-06T05:58:08;10.97;;;5.97;;
7021;SDS011;3552;42.664;23.406;2022-09-06T06:00:37;12.27;;;5.97;;
7021;SDS011;3552;42.664;23.406;2022-09-06T06:03:04;13.10;;;6.53;;
7021;SDS011;3552;42.664;23.406;2022-09-06T06:05:31;9.93;;;6.30;;
7021;SDS011;3552;42.664;23.406;2022-09-06T06:07:58;14.07;;;6.73;;
7021;SDS011;3552;42.664;23.406;2022-09-06T06:10:26;8.10;;;5.73;;
7021;SDS011;3552;42.664;23.406;2022-09-06T06:12:53;9.43;;;6.63;;
7021;SDS011;3552;42.664;23.406;2022-09-06T06:15:24;11.50;;;6.13;;
7021;SDS011;3552;42.664;23.406;2022-09-06T06:17:53;11.60;;;6.80;;
7021;SDS011;3552;42.664;23.406;2022-09-06T06:20:20;11.23;;;7.13;;
7021;SDS011;3552;42.664;23.406;2022-09-06T06:22:49;9.77;;;6.60;;
7021;SDS011;3552;42.664;23.406;2022-09-06T06:25:16;12.33;;;8.77;;
7021;SDS011;3552;42.664;23.406;2022-09-06T06:27:47;16.57;;;13.87;;
7021;SDS011;3552;42.664;23.406;2022-09-06T06:30:15;12.20;;;9.27;;
7021;SDS011;3552;42.664;23.406;2022-09-06T06:32:43;12.90;;;7.60;;
7021;SDS011;3552;42.664;23.406;2022-09-06T06:35:13;15.90;;;7.83;;
7021;SDS011;3552;42.664;23.406;2022-09-06T06:37:42;12.00;;;7.60;;
7021;SDS011;3552;42.664;23.406;2022-09-06T06:40:12;12.60;;;7.63;;
7021;SDS011;3552;42.664;23.406;2022-09-06T06:42:39;11.27;;;7.87;;
7021;SDS011;3552;42.664;23.406;2022-09-06T06:45:07;10.70;;;7.50;;
7021;SDS011;3552;42.664;23.406;2022-09-06T06:47:34;12.33;;;8.23;;
7021;SDS011;3552;42.664;23.406;2022-09-06T06:50:03;9.70;;;7.60;;
7021;SDS011;3552;42.664;23.406;2022-09-06T06:52:32;11.03;;;8.67;;
7021;SDS011;3552;42.664;23.406;2022-09-06T06:54:59;9.50;;;7.70;;
7021;SDS011;3552;42.664;23.406;2022-09-06T06:57:26;13.40;;;8.03;;
7021;SDS011;3552;42.664;23.406;2022-09-06T06:59:54;11.10;;;7.60;;
7021;SDS011;3552;42.664;23.406;2022-09-06T07:02:21;13.13;;;8.00;;
7021;SDS011;3552;42.664;23.406;2022-09-06T07:04:49;14.73;;;7.07;;
7021;SDS011;3552;42.664;23.406;2022-09-06T07:07:20;13.60;;;7.03;;
7021;SDS011;3552;42.664;23.406;2022-09-06T07:09:47;14.87;;;7.50;;
7021;SDS011;3552;42.664;23.406;2022-09-06T07:12:17;10.60;;;7.50;;
7021;SDS011;3552;42.664;23.406;2022-09-06T07:14:45;12.53;;;7.33;;
7021;SDS011;3552;42.664;23.406;2022-09-06T07:17:13;7.90;;;6.10;;
7021;SDS011;3552;42.664;23.406;2022-09-06T07:19:42;13.23;;;5.60;;
7021;SDS011;3552;42.664;23.406;2022-09-06T07:22:09;12.10;;;7.10;;
7021;SDS011;3552;42.664;23.406;2022-09-06T07:24:38;8.13;;;6.50;;
7021;SDS011;3552;42.664;23.406;2022-09-06T07:27:05;13.50;;;6.37;;
7021;SDS011;3552;42.664;23.406;2022-09-06T07:29:35;8.03;;;5.40;;
7021;SDS011;3552;42.664;23.406;2022-09-06T07:32:02;7.73;;;5.07;;
7021;SDS011;3552;42.664;23.406;2022-09-06T07:34:30;9.97;;;5.73;;
7021;SDS011;3552;42.664;23.406;2022-09-06T07:37:02;7.53;;;4.87;;
7021;SDS011;3552;42.664;23.406;2022-09-06T07:39:30;7.47;;;5.33;;
7021;SDS011;3552;42.664;23.406;2022-09-06T07:42:03;8.43;;;6.30;;
7021;SDS011;3552;42.664;23.406;2022-09-06T07:44:30;6.17;;;5.47;;
7021;SDS011;3552;42.664;23.406;2022-09-06T07:46:58;8.23;;;5.37;;
7021;SDS011;3552;42.664;23.406;2022-09-06T07:49:27;10.70;;;6.33;;
7021;SDS011;3552;42.664;23.406;2022-09-06T07:51:54;9.57;;;5.67;;
7021;SDS011;3552;42.664;23.406;2022-09-06T07:54:22;8.00;;;5.60;;
7021;SDS011;3552;42.664;23.406;2022-09-06T07:56:51;13.43;;;6.30;;
7021;SDS011;3552;42.664;23.406;2022-09-06T07:59:20;8.80;;;6.10;;
7021;SDS011;3552;42.664;23.406;2022-09-06T08:01:48;9.37;;;6.53;;
7021;SDS011;3552;42.664;23.406;2022-09-06T08:04:17;11.13;;;5.70;;
7021;SDS011;3552;42.664;23.406;2022-09-06T08:06:46;8.87;;;6.10;;
7021;SDS011;3552;42.664;23.406;2022-09-06T08:09:14;7.60;;;5.47;;
7021;SDS011;3552;42.664;23.406;2022-09-06T08:11:42;7.83;;;5.60;;
7021;SDS011;3552;42.664;23.406;2022-09-06T08:14:10;10.97;;;5.80;;
7021;SDS011;3552;42.664;23.406;2022-09-06T08:16:39;10.53;;;6.13;;
7021;SDS011;3552;42.664;23.406;2022-09-06T08:19:07;7.23;;;5.40;;
7021;SDS011;3552;42.664;23.406;2022-09-06T08:21:36;7.73;;;4.83;;
7021;SDS011;3552;42.664;23.406;2022-09-06T08:24:04;7.23;;;5.77;;
7021;SDS011;3552;42.664;23.406;2022-09-06T08:26:34;7.40;;;5.47;;
7021;SDS011;3552;42.664;23.406;2022-09-06T08:29:04;6.20;;;4.93;;
7021;SDS011;3552;42.664;23.406;2022-09-06T08:31:34;6.83;;;4.80;;
7021;SDS011;3552;42.664;23.406;2022-09-06T08:34:04;7.73;;;5.23;;
7021;SDS011;3552;42.664;23.406;2022-09-06T08:36:31;8.47;;;6.20;;
7021;SDS011;3552;42.664;23.406;2022-09-06T08:38:59;15.27;;;5.97;;
7021;SDS011;3552;42.664;23.406;2022-09-06T08:41:29;9.57;;;5.57;;
7021;SDS011;3552;42.664;23.406;2022-09-06T08:43:59;7.67;;;5.93;;
7021;SDS011;3552;42.664;23.406;2022-09-06T08:46:30;12.07;;;6.17;;
7021;SDS011;3552;42.664;23.406;2022-09-06T08:49:04;7.33;;;4.17;;
7021;SDS011;3552;42.664;23.406;2022-09-06T08:51:37;6.50;;;4.60;;
7021;SDS011;3552;42.664;23.406;2022-09-06T08:54:20;8.30;;;4.77;;
7021;SDS011;3552;42.664;23.406;2022-09-06T08:56:57;5.57;;;4.37;;
7021;SDS011;3552;42.664;23.406;2022-09-06T08:59:29;5.73;;;5.10;;
7021;SDS011;3552;42.664;23.406;2022-09-06T09:02:02;6.43;;;4.33;;
7021;SDS011;3552;42.664;23.406;2022-09-06T09:04:37;6.13;;;4.40;;
7021;SDS011;3552;42.664;23.406;2022-09-06T09:10:04;5.13;;;4.10;;
7021;SDS011;3552;42.664;23.406;2022-09-06T09:12:39;7.97;;;4.63;;
7021;SDS011;3552;42.664;23.406;2022-09-06T09:15:09;7.90;;;4.50;;
7021;SDS011;3552;42.664;23.406;2022-09-06T09:17:39;5.90;;;3.97;;
7021;SDS011;3552;42.664;23.406;2022-09-06T09:20:12;5.00;;;4.53;;
7021;SDS011;3552;42.664;23.406;2022-09-06T09:22:39;6.37;;;4.53;;
7021;SDS011;3552;42.664;23.406;2022-09-06T09:25:11;5.87;;;4.00;;
7021;SDS011;3552;42.664;23.406;2022-09-06T09:27:46;4.97;;;4.37;;
7021;SDS011;3552;42.664;23.406;2022-09-06T09:30:14;4.63;;;3.67;;
7021;SDS011;3552;42.664;23.406;2022-09-06T09:32:42;4.50;;;4.00;;
7021;SDS011;3552;42.664;23.406;2022-09-06T09:35:22;5.07;;;4.20;;
7021;SDS011;3552;42.664;23.406;2022-09-06T09:38:01;5.43;;;3.47;;
7021;SDS011;3552;42.664;23.406;2022-09-06T09:40:33;4.43;;;4.03;;
7021;SDS011;3552;42.664;23.406;2022-09-06T09:43:11;4.53;;;4.13;;
7021;SDS011;3552;42.664;23.406;2022-09-06T09:45:41;5.17;;;4.00;;
7021;SDS011;3552;42.664;23.406;2022-09-06T09:48:16;8.50;;;4.23;;
7021;SDS011;3552;42.664;23.406;2022-09-06T09:50:47;6.53;;;4.37;;
7021;SDS011;3552;42.664;23.406;2022-09-06T09:53:15;6.20;;;4.30;;
7021;SDS011;3552;42.664;23.406;2022-09-06T09:55:43;7.07;;;4.60;;
7021;SDS011;3552;42.664;23.406;2022-09-06T09:58:23;7.20;;;4.60;;
7021;SDS011;3552;42.664;23.406;2022-09-06T10:01:10;5.93;;;4.20;;
7021;SDS011;3552;42.664;23.406;2022-09-06T10:03:42;5.00;;;3.47;;
7021;SDS011;3552;42.664;23.406;2022-09-06T10:06:11;5.13;;;3.80;;
7021;SDS011;3552;42.664;23.406;2022-09-06T10:08:40;3.97;;;3.67;;
7021;SDS011;3552;42.664;23.406;2022-09-06T10:11:12;4.10;;;3.70;;
7021;SDS011;3552;42.664;23.406;2022-09-06T10:13:39;3.63;;;3.33;;
7021;SDS011;3552;42.664;23.406;2022-09-06T10:16:08;3.43;;;3.00;;
7021;SDS011;3552;42.664;23.406;2022-09-06T10:18:36;4.80;;;3.90;;
7021;SDS011;3552;42.664;23.406;2022-09-06T10:21:05;4.87;;;3.47;;
7021;SDS011;3552;42.664;23.406;2022-09-06T10:23:39;3.93;;;3.30;;
7021;SDS011;3552;42.664;23.406;2022-09-06T10:26:14;4.30;;;3.47;;
7021;SDS011;3552;42.664;23.406;2022-09-06T10:28:47;6.57;;;3.33;;
7021;SDS011;3552;42.664;23.406;2022-09-06T10:34:26;5.60;;;2.83;;
7021;SDS011;3552;42.664;23.406;2022-09-06T10:37:11;5.20;;;2.50;;
7021;SDS011;3552;42.664;23.406;2022-09-06T10:39:53;5.17;;;2.67;;
7021;SDS011;3552;42.664;23.406;2022-09-06T10:42:25;6.60;;;3.30;;
7021;SDS011;3552;42.664;23.406;2022-09-06T10:45:13;4.47;;;3.67;;
7021;SDS011;3552;42.664;23.406;2022-09-06T10:47:54;5.67;;;2.80;;
7021;SDS011;3552;42.664;23.406;2022-09-06T10:50:39;4.60;;;3.03;;
7021;SDS011;3552;42.664;23.406;2022-09-06T10:53:11;3.90;;;2.90;;
7021;SDS011;3552;42.664;23.406;2022-09-06T10:55:43;5.73;;;2.70;;
7021;SDS011;3552;42.664;23.406;2022-09-06T10:58:16;4.20;;;2.93;;
7021;SDS011;3552;42.664;23.406;2022-09-06T11:00:50;6.60;;;4.97;;
7021;SDS011;3552;42.664;23.406;2022-09-06T11:03:22;8.37;;;5.33;;
7021;SDS011;3552;42.664;23.406;2022-09-06T11:05:55;4.13;;;3.00;;
7021;SDS011;3552;42.664;23.406;2022-09-06T11:08:28;3.37;;;2.87;;
7021;SDS011;3552;42.664;23.406;2022-09-06T11:11:05;3.87;;;2.67;;
7021;SDS011;3552;42.664;23.406;2022-09-06T11:13:36;4.60;;;3.80;;
7021;SDS011;3552;42.664;23.406;2022-09-06T11:16:05;3.87;;;3.40;;
7021;SDS011;3552;42.664;23.406;2022-09-06T11:18:39;6.40;;;3.20;;
7021;SDS011;3552;42.664;23.406;2022-09-06T11:21:28;3.83;;;3.20;;
7021;SDS011;3552;42.664;23.406;2022-09-06T11:24:29;3.90;;;2.57;;
7021;SDS011;3552;42.664;23.406;2022-09-06T11:27:09;3.97;;;2.90;;
7021;SDS011;3552;42.664;23.406;2022-09-06T11:29:42;3.53;;;2.60;;
7021;SDS011;3552;42.664;23.406;2022-09-06T11:32:27;2.83;;;2.60;;
7021;SDS011;3552;42.664;23.406;2022-09-06T11:34:58;4.90;;;2.60;;
7021;SDS011;3552;42.664;23.406;2022-09-06T11:37:33;2.60;;;2.40;;
7021;SDS011;3552;42.664;23.406;2022-09-06T11:40:25;4.13;;;2.73;;
7021;SDS011;3552;42.664;23.406;2022-09-06T11:46:07;4.80;;;2.40;;
7021;SDS011;3552;42.664;23.406;2022-09-06T11:48:59;4.63;;;2.60;;
7021;SDS011;3552;42.664;23.406;2022-09-06T11:51:31;2.53;;;2.33;;
7021;SDS011;3552;42.664;23.406;2022-09-06T11:54:15;2.70;;;2.50;;
7021;SDS011;3552;42.664;23.406;2022-09-06T11:56:51;4.90;;;2.57;;
7021;SDS011;3552;42.664;23.406;2022-09-06T11:59:28;4.57;;;2.83;;
7021;SDS011;3552;42.664;23.406;2022-09-06T12:02:05;7.30;;;2.40;;
7021;SDS011;3552;42.664;23.406;2022-09-06T12:07:38;2.50;;;2.30;;
7021;SDS011;3552;42.664;23.406;2022-09-06T12:10:58;4.43;;;2.43;;
7021;SDS011;3552;42.664;23.406;2022-09-06T12:13:37;3.57;;;2.57;;
7021;SDS011;3552;42.664;23.406;2022-09-06T12:16:11;4.00;;;2.37;;
7021;SDS011;3552;42.664;23.406;2022-09-06T12:19:01;2.37;;;2.10;;
7021;SDS011;3552;42.664;23.406;2022-09-06T12:21:39;2.70;;;2.33;;
7021;SDS011;3552;42.664;23.406;2022-09-06T12:30:30;2.40;;;1.90;;
7021;SDS011;3552;42.664;23.406;2022-09-06T12:33:04;2.10;;;1.83;;
7021;SDS011;3552;42.664;23.406;2022-09-06T12:35:34;4.93;;;2.37;;
7021;SDS011;3552;42.664;23.406;2022-09-06T12:38:02;5.27;;;2.33;;
7021;SDS011;3552;42.664;23.406;2022-09-06T12:40:44;2.30;;;2.10;;
7021;SDS011;3552;42.664;23.406;2022-09-06T12:43:19;3.10;;;2.63;;
7021;SDS011;3552;42.664;23.406;2022-09-06T12:45:47;3.00;;;2.17;;
7021;SDS011;3552;42.664;23.406;2022-09-06T12:48:25;3.83;;;2.47;;
7021;SDS011;3552;42.664;23.406;2022-09-06T12:51:00;5.83;;;2.20;;
7021;SDS011;3552;42.664;23.406;2022-09-06T12:53:29;3.37;;;2.50;;
7021;SDS011;3552;42.664;23.406;2022-09-06T12:56:03;2.70;;;2.20;;
7021;SDS011;3552;42.664;23.406;2022-09-06T12:58:35;6.77;;;2.80;;
7021;SDS011;3552;42.664;23.406;2022-09-06T13:01:06;4.73;;;2.77;;
7021;SDS011;3552;42.664;23.406;2022-09-06T13:03:38;3.23;;;2.53;;
7021;SDS011;3552;42.664;23.406;2022-09-06T13:06:10;2.50;;;1.97;;
7021;SDS011;3552;42.664;23.406;2022-09-06T13:08:44;3.90;;;2.23;;
7021;SDS011;3552;42.664;23.406;2022-09-06T13:11:15;5.93;;;2.20;;
7021;SDS011;3552;42.664;23.406;2022-09-06T13:13:49;6.60;;;2.33;;
7021;SDS011;3552;42.664;23.406;2022-09-06T13:16:29;2.43;;;2.20;;
7021;SDS011;3552;42.664;23.406;2022-09-06T13:19:10;3.90;;;2.20;;
7021;SDS011;3552;42.664;23.406;2022-09-06T13:21:53;8.50;;;2.70;;
7021;SDS011;3552;42.664;23.406;2022-09-06T13:28:08;2.80;;;2.60;;
7021;SDS011;3552;42.664;23.406;2022-09-06T13:30:45;2.17;;;1.87;;
7021;SDS011;3552;42.664;23.406;2022-09-06T13:33:26;4.57;;;2.00;;
7021;SDS011;3552;42.664;23.406;2022-09-06T13:36:06;5.97;;;2.60;;
7021;SDS011;3552;42.664;23.406;2022-09-06T13:38:43;5.87;;;2.20;;
7021;SDS011;3552;42.664;23.406;2022-09-06T13:44:26;2.60;;;2.03;;
7021;SDS011;3552;42.664;23.406;2022-09-06T13:46:55;3.63;;;2.10;;
7021;SDS011;3552;42.664;23.406;2022-09-06T13:49:22;1.93;;;1.50;;
7021;SDS011;3552;42.664;23.406;2022-09-06T13:51:50;2.10;;;1.80;;
7021;SDS011;3552;42.664;23.406;2022-09-06T13:54:18;2.23;;;1.80;;
7021;SDS011;3552;42.664;23.406;2022-09-06T13:56:53;2.83;;;1.97;;
7021;SDS011;3552;42.664;23.406;2022-09-06T13:59:21;2.17;;;1.87;;
7021;SDS011;3552;42.664;23.406;2022-09-06T14:01:52;3.60;;;2.13;;
7021;SDS011;3552;42.664;23.406;2022-09-06T14:04:24;1.93;;;1.73;;
7021;SDS011;3552;42.664;23.406;2022-09-06T14:06:53;5.37;;;1.83;;
7021;SDS011;3552;42.664;23.406;2022-09-06T14:09:21;4.70;;;2.17;;
7021;SDS011;3552;42.664;23.406;2022-09-06T14:11:53;3.03;;;1.70;;
7021;SDS011;3552;42.664;23.406;2022-09-06T14:14:20;3.27;;;1.87;;
7021;SDS011;3552;42.664;23.406;2022-09-06T14:16:49;5.73;;;2.03;;
7021;SDS011;3552;42.664;23.406;2022-09-06T14:19:19;4.13;;;1.57;;
7021;SDS011;3552;42.664;23.406;2022-09-06T14:21:49;5.53;;;2.00;;
7021;SDS011;3552;42.664;23.406;2022-09-06T14:24:17;7.07;;;1.80;;
7021;SDS011;3552;42.664;23.406;2022-09-06T14:26:44;2.60;;;1.70;;
7021;SDS011;3552;42.664;23.406;2022-09-06T14:29:14;3.50;;;2.00;;
7021;SDS011;3552;42.664;23.406;2022-09-06T14:31:41;3.97;;;1.60;;
7021;SDS011;3552;42.664;23.406;2022-09-06T14:34:09;4.60;;;1.90;;
7021;SDS011;3552;42.664;23.406;2022-09-06T14:36:37;2.50;;;2.07;;
7021;SDS011;3552;42.664;23.406;2022-09-06T14:39:05;2.53;;;1.83;;
7021;SDS011;3552;42.664;23.406;2022-09-06T14:41:32;4.23;;;1.87;;
7021;SDS011;3552;42.664;23.406;2022-09-06T14:43:59;3.60;;;2.10;;
7021;SDS011;3552;42.664;23.406;2022-09-06T14:49:17;10.80;;;2.40;;
7021;SDS011;3552;42.664;23.406;2022-09-06T14:51:47;2.27;;;2.00;;
7021;SDS011;3552;42.664;23.406;2022-09-06T14:54:17;2.40;;;1.97;;
7021;SDS011;3552;42.664;23.406;2022-09-06T14:56:45;3.27;;;2.30;;
7021;SDS011;3552;42.664;23.406;2022-09-06T14:59:12;5.53;;;2.60;;
7021;SDS011;3552;42.664;23.406;2022-09-06T15:01:39;8.77;;;2.10;;
7021;SDS011;3552;42.664;23.406;2022-09-06T15:04:10;5.67;;;2.73;;
7021;SDS011;3552;42.664;23.406;2022-09-06T15:06:39;3.10;;;2.10;;
7021;SDS011;3552;42.664;23.406;2022-09-06T15:09:11;3.00;;;2.47;;
7021;SDS011;3552;42.664;23.406;2022-09-06T15:11:40;3.00;;;2.33;;
7021;SDS011;3552;42.664;23.406;2022-09-06T15:14:11;2.63;;;2.10;;
7021;SDS011;3552;42.664;23.406;2022-09-06T15:16:41;3.07;;;2.30;;
7021;SDS011;3552;42.664;23.406;2022-09-06T15:19:11;6.80;;;3.13;;
7021;SDS011;3552;42.664;23.406;2022-09-06T15:21:38;4.67;;;2.43;;
7021;SDS011;3552;42.664;23.406;2022-09-06T15:24:06;3.83;;;2.33;;
7021;SDS011;3552;42.664;23.406;2022-09-06T15:26:33;6.20;;;3.00;;
7021;SDS011;3552;42.664;23.406;2022-09-06T15:29:05;4.80;;;2.57;;
7021;SDS011;3552;42.664;23.406;2022-09-06T15:31:32;4.07;;;2.43;;
7021;SDS011;3552;42.664;23.406;2022-09-06T15:34:00;3.00;;;2.40;;
7021;SDS011;3552;42.664;23.406;2022-09-06T15:36:31;5.07;;;2.57;;
7021;SDS011;3552;42.664;23.406;2022-09-06T15:38:59;5.60;;;3.00;;
7021;SDS011;3552;42.664;23.406;2022-09-06T15:41:32;7.80;;;2.93;;
7021;SDS011;3552;42.664;23.406;2022-09-06T15:44:01;2.63;;;2.33;;
7021;SDS011;3552;42.664;23.406;2022-09-06T15:46:44;3.80;;;2.90;;
7021;SDS011;3552;42.664;23.406;2022-09-06T15:49:15;4.30;;;2.40;;
7021;SDS011;3552;42.664;23.406;2022-09-06T15:51:45;5.57;;;2.47;;
7021;SDS011;3552;42.664;23.406;2022-09-06T15:54:13;2.80;;;2.40;;